createdAt,value
2023-05-18T00:00:21.321Z,0.00
2023-05-18T00:01:21.325Z,0.00
2023-05-18T00:02:21.448Z,0.00
2023-05-18T00:03:21.591Z,0.00
2023-05-18T00:04:21.464Z,0.00
2023-05-18T00:05:21.424Z,0.00
2023-05-18T00:06:21.452Z,0.00
2023-05-18T00:07:21.512Z,0.00
2023-05-18T00:08:21.498Z,0.00
2023-05-18T00:09:21.525Z,0.00
2023-05-18T00:10:21.602Z,0.00
2023-05-18T00:11:21.575Z,0.00
2023-05-18T00:12:21.617Z,0.00
2023-05-18T00:13:21.627Z,0.00
2023-05-18T00:14:21.664Z,0.00
2023-05-18T00:15:21.671Z,0.00
2023-05-18T00:16:21.750Z,0.00
2023-05-18T00:17:21.731Z,0.00
2023-05-18T00:18:21.746Z,0.00
2023-05-18T00:19:21.868Z,0.00
2023-05-18T00:20:21.800Z,0.00
2023-05-18T00:21:21.823Z,0.00
2023-05-18T00:22:21.847Z,0.00
2023-05-18T00:23:21.873Z,0.00
2023-05-18T00:24:21.903Z,0.00
2023-05-18T00:25:21.922Z,0.00
2023-05-18T00:26:21.948Z,0.00
2023-05-18T00:27:21.973Z,0.00
2023-05-18T00:28:22.017Z,0.00
2023-05-18T00:29:22.022Z,0.00
2023-05-18T00:30:22.058Z,0.00
2023-05-18T00:31:22.108Z,0.00
2023-05-18T00:32:22.104Z,0.00
2023-05-18T00:33:22.125Z,0.00
2023-05-18T00:34:22.161Z,0.00
2023-05-18T00:35:22.179Z,0.00
2023-05-18T00:36:22.200Z,0.00
2023-05-18T00:37:22.225Z,0.00
2023-05-18T00:38:22.248Z,0.00
2023-05-18T00:39:22.282Z,0.00
2023-05-18T00:40:22.299Z,0.00
2023-05-18T00:41:22.324Z,0.00
2023-05-18T00:42:22.346Z,0.00
2023-05-18T00:43:22.382Z,0.00
2023-05-18T00:44:22.424Z,0.00
2023-05-18T00:45:22.435Z,0.00
2023-05-18T00:46:22.461Z,0.00
2023-05-18T00:47:22.474Z,0.00
2023-05-18T00:48:22.527Z,0.00
2023-05-18T00:49:22.545Z,0.00
2023-05-18T00:50:22.549Z,0.00
2023-05-18T00:51:22.580Z,0.00
2023-05-18T00:52:22.612Z,0.00
2023-05-18T00:53:22.623Z,0.00
2023-05-18T00:54:22.645Z,0.00
2023-05-18T00:55:22.683Z,0.00
2023-05-18T00:56:22.699Z,0.00
2023-05-18T00:57:22.724Z,0.00
2023-05-18T00:58:22.748Z,0.00
2023-05-18T00:59:22.777Z,0.00
2023-05-18T01:00:22.837Z,0.00
2023-05-18T01:01:22.885Z,0.00
2023-05-18T01:02:22.871Z,0.00
2023-05-18T01:03:22.905Z,0.00
2023-05-18T01:04:22.898Z,0.00
2023-05-18T01:05:22.920Z,0.00
2023-05-18T01:06:22.944Z,0.00
2023-05-18T01:07:22.972Z,0.00
2023-05-18T01:08:22.992Z,0.00
2023-05-18T01:09:23.028Z,0.00
2023-05-18T01:10:23.057Z,0.00
2023-05-18T01:11:23.130Z,0.00
2023-05-18T01:12:23.095Z,0.00
2023-05-18T01:13:23.118Z,0.00
2023-05-18T01:14:23.140Z,0.00
2023-05-18T01:15:23.166Z,0.00
2023-05-18T01:16:23.270Z,0.00
2023-05-18T01:17:23.216Z,0.00
2023-05-18T01:18:23.238Z,0.00
2023-05-18T01:19:23.290Z,0.00
2023-05-18T01:20:23.290Z,0.00
2023-05-18T01:21:23.322Z,0.00
2023-05-18T01:22:23.346Z,0.00
2023-05-18T01:23:23.363Z,0.00
2023-05-18T01:24:23.444Z,0.00
2023-05-18T01:25:23.411Z,0.00
2023-05-18T01:26:23.444Z,0.00
2023-05-18T01:27:23.465Z,0.00
2023-05-18T01:28:23.484Z,0.00
2023-05-18T01:29:23.510Z,0.00
2023-05-18T01:30:23.536Z,0.00
2023-05-18T01:31:23.637Z,0.00
2023-05-18T01:32:23.652Z,0.00
2023-05-18T01:33:23.610Z,0.00
2023-05-18T01:34:23.632Z,0.00
2023-05-18T01:35:23.658Z,0.00
2023-05-18T01:36:23.679Z,0.00
2023-05-18T01:37:23.705Z,0.00
2023-05-18T01:38:23.739Z,0.00
2023-05-18T01:39:23.757Z,0.00
2023-05-18T01:40:23.778Z,0.00
2023-05-18T01:41:23.804Z,0.00
2023-05-18T01:42:23.829Z,0.00
2023-05-18T01:43:23.858Z,0.00
2023-05-18T01:44:23.888Z,0.00
2023-05-18T01:45:23.903Z,0.00
2023-05-18T01:46:24.002Z,0.00
2023-05-18T01:47:23.960Z,0.00
2023-05-18T01:48:23.997Z,0.00
2023-05-18T01:49:23.997Z,0.00
2023-05-18T01:50:24.024Z,0.00
2023-05-18T01:51:24.050Z,0.00
2023-05-18T01:52:24.075Z,0.00
2023-05-18T01:53:24.101Z,0.00
2023-05-18T01:54:24.122Z,0.00
2023-05-18T01:55:24.161Z,0.00
2023-05-18T01:56:24.171Z,0.00
2023-05-18T01:57:24.202Z,0.00
2023-05-18T01:58:24.219Z,0.00
2023-05-18T01:59:24.243Z,0.00
2023-05-18T02:00:24.280Z,0.00
2023-05-18T02:01:24.344Z,0.00
2023-05-18T02:02:24.427Z,0.00
2023-05-18T02:03:24.429Z,0.00
2023-05-18T02:04:24.459Z,0.00
2023-05-18T02:05:24.401Z,0.00
2023-05-18T02:06:24.418Z,0.00
2023-05-18T02:07:24.441Z,0.00
2023-05-18T02:08:24.465Z,0.00
2023-05-18T02:09:24.493Z,0.00
2023-05-18T02:10:24.511Z,0.00
2023-05-18T02:11:24.538Z,0.00
2023-05-18T02:12:24.562Z,0.00
2023-05-18T02:13:24.584Z,0.00
2023-05-18T02:14:24.607Z,0.00
2023-05-18T02:15:24.630Z,0.00
2023-05-18T02:16:24.707Z,0.00
2023-05-18T02:17:24.721Z,0.00
2023-05-18T02:18:24.706Z,0.00
2023-05-18T02:19:24.873Z,0.00
2023-05-18T02:20:24.880Z,0.00
2023-05-18T02:21:24.776Z,0.00
2023-05-18T02:22:24.801Z,0.00
2023-05-18T02:23:24.896Z,0.00
2023-05-18T02:24:24.854Z,0.00
2023-05-18T02:25:24.875Z,0.00
2023-05-18T02:26:24.894Z,0.00
2023-05-18T02:27:24.928Z,0.00
2023-05-18T02:28:24.943Z,0.00
2023-05-18T02:29:24.969Z,0.00
2023-05-18T02:30:24.998Z,0.00
2023-05-18T02:31:25.020Z,0.00
2023-05-18T02:32:25.088Z,0.00
2023-05-18T02:33:25.066Z,0.00
2023-05-18T02:34:25.089Z,0.00
2023-05-18T02:35:25.118Z,0.00
2023-05-18T02:36:25.212Z,0.00
2023-05-18T02:37:25.165Z,0.00
2023-05-18T02:38:25.184Z,0.00
2023-05-18T02:39:25.208Z,0.00
2023-05-18T02:40:25.233Z,0.00
2023-05-18T02:41:25.256Z,0.00
2023-05-18T02:42:25.282Z,0.00
2023-05-18T02:43:25.307Z,0.00
2023-05-18T02:44:25.330Z,0.00
2023-05-18T02:45:25.385Z,0.00
2023-05-18T02:46:25.459Z,0.00
2023-05-18T02:47:25.412Z,0.00
2023-05-18T02:48:25.428Z,0.00
2023-05-18T02:49:25.456Z,0.00
2023-05-18T02:50:25.478Z,0.00
2023-05-18T02:51:25.503Z,0.00
2023-05-18T02:52:25.543Z,0.00
2023-05-18T02:53:25.561Z,0.00
2023-05-18T02:54:25.575Z,0.00
2023-05-18T02:55:25.598Z,0.00
2023-05-18T02:56:25.626Z,0.00
2023-05-18T02:57:25.647Z,0.00
2023-05-18T02:58:25.765Z,0.00
2023-05-18T02:59:25.700Z,4.00
2023-05-18T03:00:25.785Z,4.00
2023-05-18T03:01:25.805Z,4.00
2023-05-18T03:02:25.789Z,4.00
2023-05-18T03:03:25.987Z,0.00
2023-05-18T03:04:26.166Z,4.00
2023-05-18T03:05:25.841Z,4.00
2023-05-18T03:06:26.084Z,8.00
2023-05-18T03:07:25.889Z,4.00
2023-05-18T03:08:26.000Z,8.00
2023-05-18T03:09:25.938Z,8.00
2023-05-18T03:10:25.963Z,8.00
2023-05-18T03:11:25.994Z,8.00
2023-05-18T03:12:26.013Z,12.00
2023-05-18T03:13:26.033Z,12.00
2023-05-18T03:14:26.061Z,12.00
2023-05-18T03:15:26.083Z,16.00
2023-05-18T03:16:26.116Z,16.00
2023-05-18T03:17:26.181Z,24.00
2023-05-18T03:18:26.156Z,24.00
2023-05-18T03:19:26.237Z,28.00
2023-05-18T03:20:26.204Z,32.00
2023-05-18T03:21:26.232Z,40.00
2023-05-18T03:22:26.266Z,44.00
2023-05-18T03:23:26.273Z,48.00
2023-05-18T03:24:26.329Z,56.00
2023-05-18T03:25:26.322Z,64.00
2023-05-18T03:26:26.346Z,72.00
2023-05-18T03:27:26.368Z,76.00
2023-05-18T03:28:26.397Z,84.00
2023-05-18T03:29:26.417Z,100.00
2023-05-18T03:30:26.446Z,108.00
2023-05-18T03:31:26.489Z,120.00
2023-05-18T03:32:26.511Z,132.00
2023-05-18T03:33:26.515Z,148.00
2023-05-18T03:34:26.540Z,160.00
2023-05-18T03:35:26.565Z,176.00
2023-05-18T03:37:09.137Z,208.00
2023-05-18T03:38:09.166Z,224.00
2023-05-18T03:39:09.184Z,252.00
2023-05-18T03:40:09.296Z,272.00
2023-05-18T03:41:09.234Z,296.00
2023-05-18T03:42:09.257Z,324.00
2023-05-18T03:43:09.281Z,352.00
2023-05-18T03:44:09.310Z,380.00
2023-05-18T03:45:09.326Z,416.00
2023-05-18T03:46:09.384Z,448.00
2023-05-18T03:47:09.371Z,484.00
2023-05-18T03:48:09.441Z,520.00
2023-05-18T03:49:09.426Z,560.00
2023-05-18T03:50:09.467Z,600.00
2023-05-18T03:51:09.479Z,640.00
2023-05-18T03:52:09.490Z,688.00
2023-05-18T03:53:09.523Z,728.00
2023-05-18T03:54:09.539Z,776.00
2023-05-18T03:55:09.565Z,828.00
2023-05-18T03:56:09.611Z,876.00
2023-05-18T03:57:09.621Z,928.00
2023-05-18T03:58:09.634Z,980.00
2023-05-18T03:59:09.863Z,1032.00
2023-05-18T04:00:12.320Z,1088.00
2023-05-18T04:01:09.698Z,1148.00
2023-05-18T04:02:09.803Z,1204.00
2023-05-18T04:03:09.823Z,1268.00
2023-05-18T04:04:09.847Z,1328.00
2023-05-18T04:05:09.795Z,1392.00
2023-05-18T04:06:09.819Z,1456.00
2023-05-18T04:07:09.857Z,1520.00
2023-05-18T04:08:09.877Z,1592.00
2023-05-18T04:09:09.888Z,1660.00
2023-05-18T04:10:10.020Z,1728.00
2023-05-18T04:11:09.933Z,1796.00
2023-05-18T04:12:10.115Z,1868.00
2023-05-18T04:13:10.025Z,1936.00
2023-05-18T04:14:10.011Z,2008.00
2023-05-18T04:15:10.034Z,2080.00
2023-05-18T04:17:02.623Z,2212.00
2023-05-18T04:18:02.676Z,2292.00
2023-05-18T04:19:03.865Z,2360.00
2023-05-18T04:20:02.710Z,2440.00
2023-05-18T04:21:02.720Z,2508.00
2023-05-18T04:22:02.743Z,2584.00
2023-05-18T04:23:02.768Z,2656.00
2023-05-18T04:24:02.854Z,2740.00
2023-05-18T04:25:02.818Z,2820.00
2023-05-18T04:26:02.849Z,2884.00
2023-05-18T04:27:02.912Z,2976.00
2023-05-18T04:28:02.910Z,3296.00
2023-05-18T04:29:02.914Z,3316.00
2023-05-18T04:30:02.946Z,3240.00
2023-05-18T04:31:02.960Z,3292.00
2023-05-18T04:32:03.015Z,3328.00
2023-05-18T04:33:03.057Z,3400.00
2023-05-18T04:34:03.035Z,3476.00
2023-05-18T04:35:03.058Z,3552.00
2023-05-18T04:36:03.084Z,3628.00
2023-05-18T04:37:03.161Z,3696.00
2023-05-18T04:38:03.129Z,3780.00
2023-05-18T04:39:03.159Z,3876.00
2023-05-18T04:40:03.183Z,4024.00
2023-05-18T04:41:03.201Z,4416.00
2023-05-18T04:42:03.228Z,4380.00
2023-05-18T04:43:03.252Z,4496.00
2023-05-18T04:44:03.301Z,5152.00
2023-05-18T04:45:03.297Z,4976.00
2023-05-18T04:46:03.362Z,4452.00
2023-05-18T04:47:03.346Z,4452.00
2023-05-18T04:48:03.428Z,4552.00
2023-05-18T04:49:03.396Z,4568.00
2023-05-18T04:50:03.422Z,4644.00
2023-05-18T04:51:03.454Z,5008.00
2023-05-18T04:52:03.487Z,5064.00
2023-05-18T04:53:03.508Z,5172.00
2023-05-18T04:54:46.063Z,5488.00
2023-05-18T04:55:46.088Z,6120.00
2023-05-18T04:56:48.731Z,5772.00
2023-05-18T04:57:46.137Z,5752.00
2023-05-18T04:58:46.179Z,6004.00
2023-05-18T04:59:46.203Z,5964.00
2023-05-18T05:00:46.207Z,5380.00
2023-05-18T05:01:46.354Z,5432.00
2023-05-18T05:02:46.367Z,5484.00
2023-05-18T05:03:46.459Z,5544.00
2023-05-18T05:04:46.304Z,5988.00
2023-05-18T05:05:46.327Z,6004.00
2023-05-18T05:06:46.352Z,5952.00
2023-05-18T05:07:46.381Z,5820.00
2023-05-18T05:08:46.401Z,5864.00
2023-05-18T05:09:46.428Z,5928.00
2023-05-18T05:10:49.082Z,5996.00
2023-05-18T05:11:46.507Z,6076.00
2023-05-18T05:12:49.184Z,6172.00
2023-05-18T05:13:46.519Z,6252.00
2023-05-18T05:14:46.543Z,6376.00
2023-05-18T05:15:46.633Z,6392.00
2023-05-18T05:17:34.200Z,6488.00
2023-05-18T05:20:57.634Z,6728.00
2023-05-18T05:21:54.423Z,6840.00
2023-05-18T05:22:54.462Z,7748.00
2023-05-18T05:23:54.468Z,9528.00
2023-05-18T05:24:54.494Z,13832.00
2023-05-18T05:25:54.516Z,14116.00
2023-05-18T05:26:54.538Z,9804.00
2023-05-18T05:27:54.568Z,11660.00
2023-05-18T05:28:54.590Z,10948.00
2023-05-18T05:29:54.628Z,11068.00
2023-05-18T05:30:54.676Z,10564.00
2023-05-18T05:31:54.704Z,8060.00
2023-05-18T05:32:54.726Z,7884.00
2023-05-18T05:33:55.951Z,8248.00
2023-05-18T05:34:54.757Z,12208.00
2023-05-18T05:35:55.086Z,19392.00
2023-05-18T05:36:54.789Z,22752.00
2023-05-18T05:37:54.836Z,22816.00
2023-05-18T05:38:54.841Z,17792.00
2023-05-18T05:39:54.870Z,21728.00
2023-05-18T05:40:54.894Z,33888.00
2023-05-18T05:43:07.536Z,30112.00
2023-05-18T05:50:00.182Z,65152.00
2023-05-18T05:52:00.161Z,72064.00
2023-05-18T05:54:00.207Z,71168.00
2023-05-18T05:55:42.764Z,70144.00
2023-05-18T05:56:42.788Z,71712.00
2023-05-18T05:57:42.903Z,70112.00
2023-05-18T05:58:42.839Z,71200.00
2023-05-18T06:02:13.842Z,69440.00
2023-05-18T06:03:14.139Z,69792.00
2023-05-18T06:04:13.866Z,72800.00
2023-05-18T06:05:56.470Z,74016.00
2023-05-18T06:08:39.012Z,77056.00
2023-05-18T06:09:39.050Z,76224.00
2023-05-18T06:11:39.120Z,79104.00
2023-05-18T06:12:39.144Z,80064.00
2023-05-18T06:13:39.180Z,80800.00
2023-05-18T06:14:39.217Z,82560.00
2023-05-18T06:15:39.458Z,81568.00
2023-05-18T06:17:40.062Z,80768.00
2023-05-18T06:18:40.739Z,80736.00
2023-05-18T06:19:39.378Z,80416.00
2023-05-18T06:20:39.399Z,81120.00
2023-05-18T06:22:22.145Z,82144.00
2023-05-18T06:24:04.572Z,82880.00
2023-05-18T06:25:04.606Z,84736.00
2023-05-18T06:30:48.427Z,85088.00
2023-05-18T06:34:18.606Z,86464.00
2023-05-18T06:35:19.991Z,87488.00
2023-05-18T06:36:22.314Z,85952.00
2023-05-18T06:37:19.033Z,83936.00
2023-05-18T06:38:18.765Z,84928.00
2023-05-18T06:39:19.002Z,84704.00
2023-05-18T06:42:18.891Z,82368.00
2023-05-18T06:43:19.734Z,84896.00
2023-05-18T06:46:19.077Z,83776.00
2023-05-18T06:47:19.075Z,82528.00
2023-05-18T06:49:19.584Z,83488.00
2023-05-18T06:50:19.603Z,88384.00
2023-05-18T06:51:19.249Z,88352.00
2023-05-18T06:52:19.255Z,85728.00
2023-05-18T06:53:19.513Z,84928.00
2023-05-18T06:58:19.514Z,81760.00
2023-05-18T06:59:19.512Z,83008.00
2023-05-18T07:00:19.556Z,83040.00
2023-05-18T07:01:19.653Z,85696.00
2023-05-18T07:02:19.624Z,84832.00
2023-05-18T07:03:19.784Z,79072.00
2023-05-18T07:04:20.703Z,79424.00
2023-05-18T07:07:17.377Z,79008.00
2023-05-18T07:08:17.646Z,80896.00
2023-05-18T07:09:17.663Z,83968.00
2023-05-18T07:10:17.475Z,84992.00
2023-05-18T07:11:17.512Z,84544.00
2023-05-18T07:12:17.567Z,83552.00
2023-05-18T07:15:00.830Z,80896.00
2023-05-18T07:16:00.263Z,81184.00
2023-05-18T07:17:00.273Z,80736.00
2023-05-18T07:19:08.128Z,79520.00
2023-05-18T07:20:08.162Z,75136.00
2023-05-18T07:21:08.174Z,79296.00
2023-05-18T07:22:08.220Z,84256.00
2023-05-18T07:23:08.260Z,85632.00
2023-05-18T07:24:08.295Z,84384.00
2023-05-18T07:25:08.343Z,83200.00
2023-05-18T07:26:08.370Z,80032.00
2023-05-18T07:27:08.407Z,81344.00
2023-05-18T07:28:08.455Z,82240.00
2023-05-18T07:29:08.483Z,77984.00
2023-05-18T07:30:08.572Z,74912.00
2023-05-18T07:31:08.620Z,74528.00
2023-05-18T07:32:08.610Z,78144.00
2023-05-18T07:33:08.697Z,75648.00
2023-05-18T07:34:08.680Z,76768.00
2023-05-18T07:35:08.937Z,78528.00
2023-05-18T07:36:08.760Z,79808.00
2023-05-18T07:37:08.791Z,77696.00
2023-05-18T07:38:08.853Z,74752.00
2023-05-18T07:39:08.873Z,77472.00
2023-05-18T07:40:08.920Z,75264.00
2023-05-18T07:41:08.946Z,68864.00
2023-05-18T07:42:09.203Z,69888.00
2023-05-18T07:44:09.282Z,77312.00
2023-05-18T07:45:09.122Z,79168.00
2023-05-18T08:01:10.073Z,77440.00
2023-05-18T08:20:11.142Z,70592.00
2023-05-18T08:21:10.742Z,70912.00
2023-05-18T08:22:10.578Z,69024.00
2023-05-18T08:24:11.476Z,57984.00
2023-05-18T08:25:10.685Z,64224.00
2023-05-18T08:26:13.163Z,67968.00
2023-05-18T08:27:10.764Z,66624.00
2023-05-18T08:28:10.786Z,63072.00
2023-05-18T08:29:11.632Z,62368.00
2023-05-18T08:30:10.876Z,68768.00
2023-05-18T08:31:11.120Z,69184.00
2023-05-18T08:32:10.999Z,64384.00
2023-05-18T08:33:11.032Z,64384.00
2023-05-18T08:35:11.071Z,66560.00
2023-05-18T08:36:11.133Z,67328.00
2023-05-18T08:37:11.349Z,70432.00
2023-05-18T08:39:11.225Z,67968.00
2023-05-18T08:40:11.983Z,64864.00
2023-05-18T08:41:11.317Z,62976.00
2023-05-18T09:15:05.914Z,14784.00
2023-05-18T09:16:06.201Z,14968.00
2023-05-18T09:17:06.183Z,15084.00
2023-05-18T09:19:48.593Z,15256.00
2023-05-18T09:21:36.200Z,15296.00
2023-05-18T09:22:36.250Z,12812.00
2023-05-18T09:23:36.278Z,12908.00
2023-05-18T09:24:39.130Z,12884.00
2023-05-18T09:25:36.550Z,13616.00
2023-05-18T09:26:36.385Z,11820.00
2023-05-18T09:28:36.440Z,11180.00
2023-05-18T09:30:29.074Z,12108.00
2023-05-18T09:31:29.117Z,19904.00
2023-05-18T09:32:29.170Z,19776.00
2023-05-18T09:33:29.204Z,11944.00
2023-05-18T09:35:41.820Z,19616.00
2023-05-18T09:36:41.853Z,16832.00
2023-05-18T09:37:41.899Z,12804.00
2023-05-18T09:38:41.916Z,20384.00
2023-05-18T09:39:42.556Z,14028.00
2023-05-18T09:40:42.001Z,13700.00
2023-05-18T09:41:42.343Z,17632.00
2023-05-18T09:42:42.052Z,20320.00
2023-05-18T09:44:24.639Z,16416.00
2023-05-18T09:45:24.690Z,14560.00
2023-05-18T09:46:24.880Z,12384.00
2023-05-18T09:47:24.779Z,15680.00
2023-05-18T09:48:25.492Z,19712.00
2023-05-18T09:49:24.831Z,21280.00
2023-05-18T09:52:24.906Z,21088.00
2023-05-18T09:53:24.939Z,22464.00
2023-05-18T09:54:24.974Z,22496.00
2023-05-18T09:55:25.754Z,21216.00
2023-05-18T09:56:25.053Z,20416.00
2023-05-18T09:57:25.276Z,19424.00
2023-05-18T09:58:25.125Z,18112.00
2023-05-18T09:59:25.345Z,17760.00
2023-05-18T10:00:25.726Z,12592.00
2023-05-18T10:01:25.319Z,16480.00
2023-05-18T10:02:25.339Z,15936.00
2023-05-18T10:03:25.277Z,15616.00
2023-05-18T10:04:25.404Z,15616.00
2023-05-18T10:05:25.547Z,15616.00
2023-05-18T10:06:25.389Z,15520.00
2023-05-18T10:07:25.426Z,15328.00
2023-05-18T10:08:25.459Z,15360.00
2023-05-18T10:09:25.700Z,15584.00
2023-05-18T10:10:25.522Z,15232.00
2023-05-18T10:11:25.561Z,15264.00
2023-05-18T10:12:25.579Z,13520.00
2023-05-18T10:13:25.614Z,14512.00
2023-05-18T10:14:25.656Z,14332.00
2023-05-18T10:15:25.693Z,14004.00
2023-05-18T10:25:26.045Z,8572.00
2023-05-18T10:26:26.056Z,12312.00
2023-05-18T10:27:26.088Z,11864.00
2023-05-18T10:28:26.181Z,11496.00
2023-05-18T10:29:26.161Z,11240.00
2023-05-18T10:30:26.200Z,11244.00
2023-05-18T10:31:26.277Z,11188.00
2023-05-18T10:32:26.527Z,10892.00
2023-05-18T10:33:29.614Z,10372.00
2023-05-18T10:34:26.831Z,7612.00
2023-05-18T10:35:26.370Z,6712.00
2023-05-18T10:36:26.402Z,9036.00
2023-05-18T10:37:26.444Z,7572.00
2023-05-18T10:38:26.687Z,9392.00
2023-05-18T10:39:26.487Z,9184.00
2023-05-18T10:40:26.532Z,9104.00
2023-05-18T10:41:26.788Z,9180.00
2023-05-18T10:42:27.317Z,9300.00
2023-05-18T10:43:26.948Z,9448.00
2023-05-18T10:44:26.664Z,9504.00
2023-05-18T10:45:26.711Z,9492.00
2023-05-18T10:46:27.118Z,9456.00
2023-05-18T10:48:26.869Z,9372.00
2023-05-18T10:49:26.836Z,9504.00
2023-05-18T10:50:26.867Z,9664.00
2023-05-18T10:52:27.342Z,9816.00
2023-05-18T10:53:27.888Z,9760.00
2023-05-18T10:54:26.984Z,9636.00
2023-05-18T10:55:27.016Z,9268.00
2023-05-18T10:56:27.058Z,9632.00
2023-05-18T10:57:27.104Z,9288.00
2023-05-18T10:59:27.161Z,8112.00
2023-05-18T11:00:27.994Z,7392.00
2023-05-18T11:01:27.293Z,8560.00
2023-05-18T11:02:27.489Z,8324.00
2023-05-18T11:03:27.313Z,8228.00
2023-05-18T11:04:27.361Z,8000.00
2023-05-18T11:05:27.363Z,5628.00
2023-05-18T11:06:27.417Z,6256.00
2023-05-18T11:07:27.411Z,7916.00
2023-05-18T11:08:27.455Z,7848.00
2023-05-18T11:09:27.476Z,7828.00
2023-05-18T11:10:27.507Z,7884.00
2023-05-18T11:11:27.544Z,7916.00
2023-05-18T11:19:27.920Z,7524.00
2023-05-18T11:20:27.865Z,7704.00
2023-05-18T11:21:27.869Z,7864.00
2023-05-18T11:22:29.889Z,7904.00
2023-05-18T11:23:27.934Z,7876.00
2023-05-18T11:25:28.002Z,7996.00
2023-05-18T11:26:28.050Z,8132.00
2023-05-18T11:27:28.062Z,8004.00
2023-05-18T11:29:14.484Z,7988.00
2023-05-18T11:31:10.728Z,8120.00
2023-05-18T11:32:10.801Z,8132.00
2023-05-18T11:33:10.929Z,8040.00
2023-05-18T11:34:10.806Z,8040.00
2023-05-18T11:35:10.885Z,8020.00
2023-05-18T11:36:10.872Z,7892.00
2023-05-18T11:37:10.910Z,7616.00
2023-05-18T11:38:11.150Z,7668.00
2023-05-18T11:40:11.654Z,6976.00
2023-05-18T11:41:11.036Z,6728.00
2023-05-18T11:42:11.085Z,6140.00
2023-05-18T11:43:11.096Z,6464.00
2023-05-18T11:44:11.130Z,6352.00
2023-05-18T11:45:11.177Z,4880.00
2023-05-18T11:46:12.319Z,6160.00
2023-05-18T11:47:11.220Z,5936.00
2023-05-18T11:49:11.323Z,5948.00
2023-05-18T11:50:12.021Z,5868.00
2023-05-18T11:51:11.573Z,5452.00
2023-05-18T11:52:11.381Z,5744.00
2023-05-18T12:08:46.999Z,6720.00
2023-05-18T12:09:47.020Z,6544.00
2023-05-18T12:10:47.041Z,6320.00
2023-05-18T12:11:47.093Z,6108.00
2023-05-18T12:13:32.342Z,5868.00
2023-05-18T12:15:29.820Z,5120.00
2023-05-18T12:16:32.473Z,5616.00
2023-05-18T12:17:29.890Z,4976.00
2023-05-18T12:18:30.096Z,3928.00
2023-05-18T12:24:30.087Z,5536.00
2023-05-18T14:18:26.448Z,5108.00
2023-05-18T14:19:26.493Z,5032.00
2023-05-18T14:20:26.538Z,3932.00
2023-05-18T14:21:26.513Z,4620.00
2023-05-18T14:22:26.541Z,3852.00
2023-05-18T14:23:26.589Z,3900.00
2023-05-18T14:24:27.228Z,4036.00
2023-05-18T14:25:26.834Z,4144.00
2023-05-18T14:26:26.853Z,4196.00
2023-05-18T14:27:26.919Z,4220.00
2023-05-18T14:28:26.947Z,4188.00
2023-05-18T14:29:26.949Z,4100.00
2023-05-18T14:30:26.785Z,4052.00
2023-05-18T14:31:26.872Z,4024.00
2023-05-18T14:32:26.884Z,3936.00
2023-05-18T14:33:26.868Z,3884.00
2023-05-18T14:34:26.918Z,3804.00
2023-05-18T14:35:26.933Z,3712.00
2023-05-18T14:36:26.958Z,3692.00
2023-05-18T14:37:27.001Z,3768.00
2023-05-18T14:38:27.074Z,3876.00
2023-05-18T14:39:27.049Z,5048.00
2023-05-18T14:40:27.081Z,5076.00
2023-05-18T14:41:27.111Z,5140.00
2023-05-18T14:42:27.152Z,5232.00
2023-05-18T14:43:27.176Z,5324.00
2023-05-18T14:44:27.209Z,5000.00
2023-05-18T14:45:27.232Z,5792.00
2023-05-18T14:46:27.291Z,5960.00
2023-05-18T14:47:27.330Z,6116.00
2023-05-18T14:48:27.327Z,6280.00
2023-05-18T14:49:27.369Z,6484.00
2023-05-18T14:51:27.436Z,6636.00
2023-05-18T14:52:27.445Z,6540.00
2023-05-18T14:53:27.470Z,7128.00
2023-05-18T14:54:27.505Z,7004.00
2023-05-18T14:55:27.537Z,6840.00
2023-05-18T14:56:27.586Z,6732.00
2023-05-18T14:57:27.616Z,6596.00
2023-05-18T14:58:27.620Z,6284.00
2023-05-18T14:59:27.653Z,6008.00
2023-05-18T15:00:27.685Z,5720.00
2023-05-18T15:01:27.735Z,5408.00
2023-05-18T15:02:27.902Z,5148.00
2023-05-18T15:04:15.437Z,4660.00
2023-05-18T15:05:15.369Z,4332.00
2023-05-18T15:06:15.406Z,4204.00
2023-05-18T15:07:15.456Z,4132.00
2023-05-18T15:08:15.457Z,3108.00
2023-05-18T15:09:15.491Z,3072.00
2023-05-18T15:10:15.533Z,3048.00
2023-05-18T15:11:15.768Z,3064.00
2023-05-18T15:12:15.581Z,3108.00
2023-05-18T15:13:15.628Z,3196.00
2023-05-18T15:14:15.641Z,3328.00
2023-05-18T15:15:15.692Z,3480.00
2023-05-18T15:16:15.723Z,3648.00
2023-05-18T15:17:15.735Z,3816.00
2023-05-18T15:18:16.039Z,3988.00
2023-05-18T15:19:16.032Z,4108.00
2023-05-18T15:20:15.828Z,4316.00
2023-05-18T15:21:15.850Z,4612.00
2023-05-18T15:22:15.887Z,4912.00
2023-05-18T15:23:15.942Z,5252.00
2023-05-18T15:24:15.945Z,6156.00
2023-05-18T15:25:15.976Z,6160.00
2023-05-18T15:26:16.005Z,6132.00
2023-05-18T15:27:16.037Z,6048.00
2023-05-18T15:28:16.068Z,5832.00
2023-05-18T15:29:16.098Z,5724.00
2023-05-18T15:30:16.125Z,5548.00
2023-05-18T15:31:16.220Z,5336.00
2023-05-18T15:32:16.400Z,5064.00
2023-05-18T15:33:16.250Z,4880.00
2023-05-18T15:34:16.241Z,4724.00
2023-05-18T15:35:16.292Z,4560.00
2023-05-18T15:36:16.306Z,4460.00
2023-05-18T15:37:16.350Z,4340.00
2023-05-18T15:38:16.392Z,4172.00
2023-05-18T15:39:16.423Z,4040.00
2023-05-18T15:40:16.441Z,3916.00
2023-05-18T15:42:16.504Z,3800.00
2023-05-18T15:44:16.767Z,3712.00
2023-05-18T15:45:17.023Z,3688.00
2023-05-18T15:46:18.039Z,3688.00
2023-05-18T15:48:26.170Z,3636.00
2023-05-18T15:49:24.479Z,3024.00
2023-05-18T15:50:24.702Z,3016.00
2023-05-18T15:51:24.538Z,3728.00
2023-05-18T15:52:24.762Z,3684.00
2023-05-18T15:53:24.607Z,3276.00
2023-05-18T15:54:24.632Z,2972.00
2023-05-18T15:55:24.647Z,3432.00
2023-05-18T15:56:24.675Z,3720.00
2023-05-18T15:58:24.734Z,3696.00
2023-05-18T15:59:24.786Z,3516.00
2023-05-18T16:00:24.792Z,3228.00
2023-05-18T16:01:24.878Z,3572.00
2023-05-18T16:02:26.014Z,2960.00
2023-05-18T16:03:25.179Z,3200.00
2023-05-18T16:04:24.935Z,3532.00
2023-05-18T16:10:25.169Z,3568.00
2023-05-18T16:11:25.125Z,3544.00
2023-05-18T16:13:37.786Z,3564.00
2023-05-18T16:14:37.804Z,3548.00
2023-05-18T16:15:37.842Z,3544.00
2023-05-18T16:16:37.894Z,3572.00
2023-05-18T16:17:38.008Z,3616.00
2023-05-18T16:18:38.075Z,3648.00
2023-05-18T16:19:37.960Z,3664.00
2023-05-18T16:21:38.338Z,3576.00
2023-05-18T16:22:38.362Z,3568.00
2023-05-18T16:23:38.090Z,3596.00
2023-05-18T16:25:38.537Z,3580.00
2023-05-18T16:26:40.015Z,3560.00
2023-05-18T16:27:39.608Z,3536.00
2023-05-18T16:28:38.234Z,3508.00
2023-05-18T16:32:38.396Z,3332.00
2023-05-18T16:33:38.408Z,3280.00
2023-05-18T16:34:38.453Z,3232.00
2023-05-18T16:35:38.446Z,3204.00
2023-05-18T16:38:39.282Z,3244.00
2023-05-18T16:39:38.566Z,3216.00
2023-05-18T16:40:38.597Z,3168.00
2023-05-18T16:41:38.653Z,3144.00
2023-05-18T16:42:38.661Z,3112.00
2023-05-18T16:43:38.694Z,3096.00
2023-05-18T16:44:38.702Z,3088.00
2023-05-18T16:45:38.736Z,3068.00
2023-05-18T16:46:38.787Z,3064.00
2023-05-18T16:47:38.808Z,3048.00
2023-05-18T16:48:38.822Z,3028.00
2023-05-18T16:50:38.878Z,3000.00
2023-05-18T16:51:38.910Z,2988.00
2023-05-18T16:52:38.934Z,2972.00
2023-05-18T16:53:38.983Z,2960.00
2023-05-18T16:54:39.005Z,2948.00
2023-05-18T16:55:39.241Z,2936.00
2023-05-18T16:56:39.078Z,2928.00
2023-05-18T16:57:39.123Z,2908.00
2023-05-18T16:58:39.112Z,2900.00
2023-05-18T16:59:39.147Z,2880.00
2023-05-18T17:00:39.175Z,2864.00
2023-05-18T17:01:39.278Z,2856.00
2023-05-18T17:02:39.511Z,2836.00
2023-05-18T17:03:39.356Z,2828.00
2023-05-18T17:04:39.291Z,2808.00
2023-05-18T17:05:39.332Z,2788.00
2023-05-18T17:06:39.351Z,2776.00
2023-05-18T17:07:39.383Z,2760.00
2023-05-18T17:08:40.031Z,2744.00
2023-05-18T17:09:39.439Z,2728.00
2023-05-18T17:10:39.471Z,2708.00
2023-05-18T17:11:39.500Z,2692.00
2023-05-18T17:12:39.524Z,2648.00
2023-05-18T17:13:39.632Z,2628.00
2023-05-18T17:14:42.425Z,2652.00
2023-05-18T17:15:40.249Z,2636.00
2023-05-18T17:17:22.207Z,2604.00
2023-05-18T17:18:22.226Z,2592.00
2023-05-18T17:19:24.905Z,2576.00
2023-05-18T17:20:23.290Z,2536.00
2023-05-18T17:21:22.307Z,2516.00
2023-05-18T17:22:22.340Z,2492.00